Pagrindinis puslapis
METAR-TAF:

METAR-TAF

Oro uostai :

Sandefjordas, Norvegija

platuma: 59-12N, ilguma: 010-16E, Aukštis: 8 m

Dabartinis oras

Ataskaita buvo paskelbta 54 minutes, ne 22:50 UTC
Vėjas 9 kt iš Pietų
Temperatūra 16°C
Drėgmė 82%
Slėgis 1016 hPa
Matomumas 10 km arba daugiau

METAR: ENTO 022250Z 19009KT 9999 FEW024/// BKN066/// 16/13 Q1016

Laikas: 01:44 (23:44 UTC)

Prognozė

Prognozė galioja nuo 02 metu 18 UTC su 03 metu 18 UTC
Vėjas 15 kt iš Pietų/Pietvakarių
Matomumas 10 km arba daugiau
nėra debesų žemiau 1500 m ir nėra kamuolinių lietaus debesų
Laikinai
nuo 03 metu 05 UTC su 03 metu 12 UTC
Su prošvaistėmis ne aukštis 1200 ft
Mažai debesys ne aukštis 2000 ft, Liūtiniai kamuoliniai debesys.
lietus

TAF: ENTO 0218/0318 21015KT CAVOK TEMPO 0305/0312 SHRA BKN012 FEW020CB

Orai ataskaitas ir orų prognozės (METAR, TAF).

turimą stotys yra geltonos ir raudonos taškus žemėlapyje.

Perkelti pele per norėdami pamatyti stoties vardą.

Tada spustelėkite, norėdami matyti oro stebėjimo ir prognozės.

Norėdami pakeisti žemėlapį: spustelėkite ant žalios mygtukų su juodo kryžiaus žemyn,; žalią mygtuką su brūkšneliu, jei norite nutolinti; arba žalių rodyklių gretimoms žemėlapius.


METAR-TAF: